Terminal Aerodrome Forecast
Issued by NWS

Home | Current Version | Previous Version | Text Only | Print | Product List | Glossary On
Versions: 1 2 3 4 5 6 7 8 9 10 11 12 13 14 15 16
000
FTUS43 KMPX 191511 AAA
TAFAXN
TAF AMD
KAXN 191511Z 1915/2012 13010KT 3SM BR OVC003
     FM191700 15018G25KT P6SM OVC015
     FM191900 14024G32KT P6SM SCT020 BKN035
     FM200100 15022G30KT P6SM VCSH BKN025 WS020/16050KT
     FM200400 15018G27KT 4SM -TSRA BKN020CB OVC040 WS020/17060KT
     FM200700 18013KT P6SM VCSH OVC020
     FM201000 26012KT P6SM BKN040=

USA.gov is the U.S. government's official web portal to all federal, state and local government web resources and services.